Seastreak Highlands — WDE4031 — position and weather

sailwx.info

Track history (hours):
 
Tides and Currents Weather Stations Pressure Air Temp Water Temp Dewpoint Dewpoint Depression Visibility Wind Speed Wind Dir Waves Ship Positions

Seastreak Highlands

Owner: Seastreak llc, atlantic highlands, NJ. More information available from US FCC via Universal Licensing System and Coast Guard Vessel Documentation Center.

Last reported at 2016-Sep-27 23:34 UTC. Time now 2016-Sep-28 12:04 UTC.
Position N 40°44' W 073°58'.

Length 44 m.

Type: High speed craft. MMSI: 367347670.

Date/timePositionNaut miles runAvg speedWind from/ knotsBaromVisibWave heightAir tempDewpointWater temp
2016-Sep-27 23:34N 40°44' W 073°58'15 3.7
2016-Sep-27 19:33N 40°29' W 074°02'16 3.2
2016-Sep-27 14:33N 40°45' W 073°58'6 5.9
2016-Sep-27 13:34N 40°39' W 074°02'15 1.1
2016-Sep-27 00:33N 40°25' W 073°60'16 3.9
2016-Sep-26 20:34N 40°40' W 074°01'7 5.5
2016-Sep-26 19:21N 40°34' W 074°02'12 3.0
2016-Sep-26 15:33N 40°45' W 073°58'4 1.9
2016-Sep-26 13:34N 40°41' W 074°01'2 0.9
2016-Sep-26 11:34N 40°40' W 074°01'3 0.2
2016-Sep-25 21:34N 40°42' W 074°02'3 0.3
2016-Sep-25 12:34N 40°39' W 074°02'1514.2
2016-Sep-25 11:31N 40°25' W 073°60'0 0.0
2016-Sep-24 22:26N 40°25' W 074°00'2124.4
2016-Sep-24 21:34N 40°46' W 074°01'8 0.9
2016-Sep-24 12:33N 40°38' W 074°03'14 6.9
2016-Sep-24 10:32N 40°25' W 073°60'0 0.0
2016-Sep-24 00:33N 40°25' W 073°60'3 0.7
2016-Sep-23 19:31N 40°28' W 074°01'17 8.6
2016-Sep-23 17:33N 40°45' W 073°58'0 0.0
2016-Sep-23 16:33N 40°45' W 073°58'0 0.0
2016-Sep-23 15:33N 40°45' W 073°58'3 1.5
2016-Sep-23 13:34N 40°42' W 074°00'18 1.4
2016-Sep-23 01:12N 40°25' W 073°60'1 1.2
2016-Sep-23 00:32N 40°25' W 074°00'1818.5
2016-Sep-22 23:34N 40°43' W 073°58'6 2.0
2016-Sep-22 20:34N 40°38' W 074°03'5 0.7
2016-Sep-22 12:33N 40°33' W 074°02'8 0.6
2016-Sep-22 00:31N 40°25' W 074°02'1919.9
2016-Sep-21 23:34N 40°44' W 073°58'2019.1
2016-Sep-21 22:32N 40°25' W 073°60'11 3.8
2016-Sep-21 19:34N 40°36' W 074°03'7 2.3
2016-Sep-21 16:34N 40°42' W 074°00'18 2.5
2016-Sep-21 09:33N 40°25' W 073°60'18 1.1
2016-Sep-20 17:33N 40°42' W 074°00'0 0.0
2016-Sep-20 14:33N 40°42' W 074°00'3 2.6
2016-Sep-20 13:33N 40°40' W 074°02'15 5.0
2016-Sep-20 10:30N 40°25' W 073°60'20 1.8
2016-Sep-19 23:34N 40°44' W 073°58'14 3.5
2016-Sep-19 19:32N 40°30' W 074°02'7 7.2
2016-Sep-19 18:33N 40°37' W 074°03'8 2.1
2016-Sep-19 14:33N 40°45' W 073°58'4 3.9
2016-Sep-19 13:34N 40°41' W 074°01'7 6.7
2016-Sep-19 12:33N 40°35' W 074°03'3 2.7
2016-Sep-19 11:33N 40°37' W 074°03'8 0.7
2016-Sep-19 00:33N 40°44' W 073°58'11 1.2
2016-Sep-18 15:21N 40°34' W 074°02'1113.2
2016-Sep-18 14:32N 40°45' W 073°58'20 1.7
2016-Sep-18 02:33N 40°25' W 073°60'1717.8
2016-Sep-18 01:34N 40°42' W 074°00'3 3.0
2016-Sep-18 00:33N 40°45' W 073°58'  
Track history (hours):
 
Tides and Currents Weather Stations Pressure Air Temp Water Temp Dewpoint Dewpoint Depression Visibility Wind Speed Wind Dir Waves Ship Positions

Seastreak Highlands

Owner: Seastreak llc, atlantic highlands, NJ. More information available from US FCC via Universal Licensing System and Coast Guard Vessel Documentation Center.

Last reported at 2016-Sep-27 23:34 UTC. Time now 2016-Sep-28 12:04 UTC.
Position N 40°44' W 073°58'.

Length 44 m.

Type: High speed craft. MMSI: 367347670.

Date/timePositionNaut miles runAvg speedWind from/ knotsBaromVisibWave heightAir tempDewpointWater temp
2016-Sep-27 23:34N 40°44' W 073°58'15 3.7
2016-Sep-27 19:33N 40°29' W 074°02'16 3.2
2016-Sep-27 14:33N 40°45' W 073°58'6 5.9
2016-Sep-27 13:34N 40°39' W 074°02'15 1.1
2016-Sep-27 00:33N 40°25' W 073°60'16 3.9
2016-Sep-26 20:34N 40°40' W 074°01'7 5.5
2016-Sep-26 19:21N 40°34' W 074°02'12 3.0
2016-Sep-26 15:33N 40°45' W 073°58'4 1.9
2016-Sep-26 13:34N 40°41' W 074°01'2 0.9
2016-Sep-26 11:34N 40°40' W 074°01'3 0.2
2016-Sep-25 21:34N 40°42' W 074°02'3 0.3
2016-Sep-25 12:34N 40°39' W 074°02'1514.2
2016-Sep-25 11:31N 40°25' W 073°60'0 0.0
2016-Sep-24 22:26N 40°25' W 074°00'2124.4
2016-Sep-24 21:34N 40°46' W 074°01'8 0.9
2016-Sep-24 12:33N 40°38' W 074°03'14 6.9
2016-Sep-24 10:32N 40°25' W 073°60'0 0.0
2016-Sep-24 00:33N 40°25' W 073°60'3 0.7
2016-Sep-23 19:31N 40°28' W 074°01'17 8.6
2016-Sep-23 17:33N 40°45' W 073°58'0 0.0
2016-Sep-23 16:33N 40°45' W 073°58'0 0.0
2016-Sep-23 15:33N 40°45' W 073°58'3 1.5
2016-Sep-23 13:34N 40°42' W 074°00'18 1.4
2016-Sep-23 01:12N 40°25' W 073°60'1 1.2
2016-Sep-23 00:32N 40°25' W 074°00'1818.5
2016-Sep-22 23:34N 40°43' W 073°58'6 2.0
2016-Sep-22 20:34N 40°38' W 074°03'5 0.7
2016-Sep-22 12:33N 40°33' W 074°02'8 0.6
2016-Sep-22 00:31N 40°25' W 074°02'1919.9
2016-Sep-21 23:34N 40°44' W 073°58'2019.1
2016-Sep-21 22:32N 40°25' W 073°60'11 3.8
2016-Sep-21 19:34N 40°36' W 074°03'7 2.3
2016-Sep-21 16:34N 40°42' W 074°00'18 2.5
2016-Sep-21 09:33N 40°25' W 073°60'18 1.1
2016-Sep-20 17:33N 40°42' W 074°00'0 0.0
2016-Sep-20 14:33N 40°42' W 074°00'3 2.6
2016-Sep-20 13:33N 40°40' W 074°02'15 5.0
2016-Sep-20 10:30N 40°25' W 073°60'20 1.8
2016-Sep-19 23:34N 40°44' W 073°58'14 3.5
2016-Sep-19 19:32N 40°30' W 074°02'7 7.2
2016-Sep-19 18:33N 40°37' W 074°03'8 2.1
2016-Sep-19 14:33N 40°45' W 073°58'4 3.9
2016-Sep-19 13:34N 40°41' W 074°01'7 6.7
2016-Sep-19 12:33N 40°35' W 074°03'3 2.7
2016-Sep-19 11:33N 40°37' W 074°03'8 0.7
2016-Sep-19 00:33N 40°44' W 073°58'11 1.2
2016-Sep-18 15:21N 40°34' W 074°02'1113.2
2016-Sep-18 14:32N 40°45' W 073°58'20 1.7
2016-Sep-18 02:33N 40°25' W 073°60'1717.8
2016-Sep-18 01:34N 40°42' W 074°00'3 3.0
2016-Sep-18 00:33N 40°45' W 073°58'  

Dump ship's entire track history